sensor_id;sensor_type;location;lat;lon;timestamp;P1;durP1;ratioP1;P2;durP2;ratioP2
72590;SDS011;60625;51.212;5.952;2023-09-19T00:00:15;9.80;;;1.50;;
72590;SDS011;60625;51.212;5.952;2023-09-19T00:05:15;10.60;;;1.80;;
72590;SDS011;60625;51.212;5.952;2023-09-19T00:10:16;8.30;;;1.70;;
72590;SDS011;60625;51.212;5.952;2023-09-19T00:15:17;8.70;;;1.60;;
72590;SDS011;60625;51.212;5.952;2023-09-19T00:20:19;8.60;;;1.40;;
72590;SDS011;60625;51.212;5.952;2023-09-19T00:25:20;7.50;;;1.60;;
72590;SDS011;60625;51.212;5.952;2023-09-19T00:30:21;6.70;;;1.00;;
72590;SDS011;60625;51.212;5.952;2023-09-19T00:35:22;14.40;;;2.10;;
72590;SDS011;60625;51.212;5.952;2023-09-19T00:40:25;11.80;;;1.90;;
72590;SDS011;60625;51.212;5.952;2023-09-19T00:45:27;10.90;;;1.70;;
72590;SDS011;60625;51.212;5.952;2023-09-19T00:50:28;13.20;;;1.90;;
72590;SDS011;60625;51.212;5.952;2023-09-19T00:55:29;10.40;;;1.80;;
72590;SDS011;60625;51.212;5.952;2023-09-19T01:00:30;10.20;;;1.60;;
72590;SDS011;60625;51.212;5.952;2023-09-19T01:05:34;8.20;;;1.20;;
72590;SDS011;60625;51.212;5.952;2023-09-19T01:10:39;10.00;;;2.30;;
72590;SDS011;60625;51.212;5.952;2023-09-19T01:22:33;12.80;;;1.60;;
72590;SDS011;60625;51.212;5.952;2023-09-19T01:27:46;11.70;;;1.70;;
72590;SDS011;60625;51.212;5.952;2023-09-19T01:32:59;11.10;;;1.60;;
72590;SDS011;60625;51.212;5.952;2023-09-19T01:38:00;10.30;;;1.60;;
72590;SDS011;60625;51.212;5.952;2023-09-19T01:43:27;12.50;;;2.00;;
72590;SDS011;60625;51.212;5.952;2023-09-19T01:48:40;8.10;;;1.30;;
72590;SDS011;60625;51.212;5.952;2023-09-19T01:59:13;10.40;;;1.80;;
72590;SDS011;60625;51.212;5.952;2023-09-19T02:04:15;7.40;;;1.10;;
72590;SDS011;60625;51.212;5.952;2023-09-19T02:09:15;8.90;;;1.40;;
72590;SDS011;60625;51.212;5.952;2023-09-19T02:14:16;11.70;;;1.50;;
72590;SDS011;60625;51.212;5.952;2023-09-19T02:19:16;8.40;;;1.70;;
72590;SDS011;60625;51.212;5.952;2023-09-19T02:24:17;10.70;;;1.30;;
72590;SDS011;60625;51.212;5.952;2023-09-19T02:29:17;8.20;;;1.50;;
72590;SDS011;60625;51.212;5.952;2023-09-19T02:34:18;9.00;;;1.20;;
72590;SDS011;60625;51.212;5.952;2023-09-19T02:39:19;9.30;;;1.50;;
72590;SDS011;60625;51.212;5.952;2023-09-19T02:44:19;10.90;;;1.90;;
72590;SDS011;60625;51.212;5.952;2023-09-19T02:49:20;12.40;;;2.10;;
72590;SDS011;60625;51.212;5.952;2023-09-19T02:54:21;10.90;;;1.90;;
72590;SDS011;60625;51.212;5.952;2023-09-19T02:59:22;8.50;;;1.50;;
72590;SDS011;60625;51.212;5.952;2023-09-19T03:04:22;8.50;;;1.20;;
72590;SDS011;60625;51.212;5.952;2023-09-19T03:09:23;9.00;;;1.60;;
72590;SDS011;60625;51.212;5.952;2023-09-19T03:14:24;9.40;;;1.80;;
72590;SDS011;60625;51.212;5.952;2023-09-19T03:19:25;10.20;;;1.80;;
72590;SDS011;60625;51.212;5.952;2023-09-19T03:24:27;9.80;;;1.50;;
72590;SDS011;60625;51.212;5.952;2023-09-19T03:29:30;8.80;;;1.70;;
72590;SDS011;60625;51.212;5.952;2023-09-19T03:34:32;9.00;;;1.50;;
72590;SDS011;60625;51.212;5.952;2023-09-19T03:39:33;11.20;;;1.80;;
72590;SDS011;60625;51.212;5.952;2023-09-19T03:44:33;6.10;;;1.20;;
72590;SDS011;60625;51.212;5.952;2023-09-19T03:49:34;12.30;;;2.10;;
72590;SDS011;60625;51.212;5.952;2023-09-19T03:54:35;8.50;;;1.50;;
72590;SDS011;60625;51.212;5.952;2023-09-19T03:59:36;10.40;;;1.80;;
72590;SDS011;60625;51.212;5.952;2023-09-19T04:04:36;7.10;;;1.50;;
72590;SDS011;60625;51.212;5.952;2023-09-19T04:09:37;18.90;;;2.30;;
72590;SDS011;60625;51.212;5.952;2023-09-19T04:14:37;10.80;;;2.00;;
72590;SDS011;60625;51.212;5.952;2023-09-19T04:19:39;8.60;;;1.90;;
72590;SDS011;60625;51.212;5.952;2023-09-19T04:24:41;8.50;;;1.50;;
72590;SDS011;60625;51.212;5.952;2023-09-19T04:29:41;9.30;;;1.50;;
72590;SDS011;60625;51.212;5.952;2023-09-19T04:34:42;16.50;;;1.70;;
72590;SDS011;60625;51.212;5.952;2023-09-19T04:39:43;10.90;;;1.80;;
72590;SDS011;60625;51.212;5.952;2023-09-19T04:44:43;12.40;;;1.90;;
72590;SDS011;60625;51.212;5.952;2023-09-19T04:49:44;12.00;;;1.90;;
72590;SDS011;60625;51.212;5.952;2023-09-19T04:54:44;15.50;;;1.80;;
72590;SDS011;60625;51.212;5.952;2023-09-19T04:59:46;8.80;;;2.10;;
72590;SDS011;60625;51.212;5.952;2023-09-19T05:04:46;13.60;;;1.60;;
72590;SDS011;60625;51.212;5.952;2023-09-19T05:09:47;11.20;;;1.90;;
72590;SDS011;60625;51.212;5.952;2023-09-19T05:14:47;6.70;;;1.70;;
72590;SDS011;60625;51.212;5.952;2023-09-19T05:19:48;9.60;;;1.30;;
72590;SDS011;60625;51.212;5.952;2023-09-19T05:24:48;10.20;;;1.40;;
72590;SDS011;60625;51.212;5.952;2023-09-19T05:29:49;8.50;;;1.50;;
72590;SDS011;60625;51.212;5.952;2023-09-19T05:34:52;7.70;;;1.50;;
72590;SDS011;60625;51.212;5.952;2023-09-19T05:39:56;10.70;;;1.70;;
72590;SDS011;60625;51.212;5.952;2023-09-19T05:44:57;7.70;;;1.80;;
72590;SDS011;60625;51.212;5.952;2023-09-19T05:49:59;10.10;;;1.60;;
72590;SDS011;60625;51.212;5.952;2023-09-19T05:54:59;9.90;;;2.00;;
72590;SDS011;60625;51.212;5.952;2023-09-19T06:00:00;9.60;;;1.50;;
72590;SDS011;60625;51.212;5.952;2023-09-19T06:05:00;7.10;;;1.50;;
72590;SDS011;60625;51.212;5.952;2023-09-19T06:10:03;12.30;;;1.60;;
72590;SDS011;60625;51.212;5.952;2023-09-19T06:15:06;11.30;;;1.80;;
72590;SDS011;60625;51.212;5.952;2023-09-19T06:20:09;15.80;;;1.80;;
72590;SDS011;60625;51.212;5.952;2023-09-19T06:25:16;9.80;;;1.60;;
72590;SDS011;60625;51.212;5.952;2023-09-19T06:30:21;10.90;;;1.60;;
72590;SDS011;60625;51.212;5.952;2023-09-19T06:35:24;9.80;;;1.60;;
72590;SDS011;60625;51.212;5.952;2023-09-19T06:40:26;13.80;;;1.80;;
72590;SDS011;60625;51.212;5.952;2023-09-19T06:45:28;8.20;;;1.40;;
72590;SDS011;60625;51.212;5.952;2023-09-19T06:50:28;13.80;;;1.80;;
72590;SDS011;60625;51.212;5.952;2023-09-19T06:55:31;10.60;;;1.90;;
72590;SDS011;60625;51.212;5.952;2023-09-19T07:00:32;10.70;;;1.80;;
72590;SDS011;60625;51.212;5.952;2023-09-19T07:05:37;14.40;;;1.80;;
72590;SDS011;60625;51.212;5.952;2023-09-19T07:10:40;13.80;;;1.60;;
72590;SDS011;60625;51.212;5.952;2023-09-19T07:15:43;10.90;;;1.70;;
72590;SDS011;60625;51.212;5.952;2023-09-19T07:20:47;11.80;;;1.80;;
72590;SDS011;60625;51.212;5.952;2023-09-19T07:25:50;12.50;;;2.00;;
72590;SDS011;60625;51.212;5.952;2023-09-19T07:30:50;10.60;;;1.50;;
72590;SDS011;60625;51.212;5.952;2023-09-19T07:35:50;11.40;;;2.00;;
72590;SDS011;60625;51.212;5.952;2023-09-19T07:40:52;7.50;;;1.70;;
72590;SDS011;60625;51.212;5.952;2023-09-19T07:45:52;10.50;;;1.80;;
72590;SDS011;60625;51.212;5.952;2023-09-19T07:50:53;10.70;;;1.90;;
72590;SDS011;60625;51.212;5.952;2023-09-19T07:56:05;11.00;;;2.20;;
72590;SDS011;60625;51.212;5.952;2023-09-19T08:01:06;7.30;;;1.30;;
72590;SDS011;60625;51.212;5.952;2023-09-19T08:06:07;8.50;;;1.80;;
72590;SDS011;60625;51.212;5.952;2023-09-19T08:11:08;13.20;;;2.50;;
72590;SDS011;60625;51.212;5.952;2023-09-19T08:16:19;11.10;;;2.40;;
72590;SDS011;60625;51.212;5.952;2023-09-19T08:21:23;13.50;;;1.70;;
72590;SDS011;60625;51.212;5.952;2023-09-19T08:26:24;10.30;;;1.90;;
72590;SDS011;60625;51.212;5.952;2023-09-19T08:31:25;9.00;;;1.50;;
72590;SDS011;60625;51.212;5.952;2023-09-19T08:36:26;12.00;;;1.60;;
72590;SDS011;60625;51.212;5.952;2023-09-19T08:41:27;9.00;;;1.90;;
72590;SDS011;60625;51.212;5.952;2023-09-19T08:46:30;10.20;;;1.80;;
72590;SDS011;60625;51.212;5.952;2023-09-19T08:51:42;14.40;;;1.70;;
72590;SDS011;60625;51.212;5.952;2023-09-19T08:56:47;8.90;;;1.50;;
72590;SDS011;60625;51.212;5.952;2023-09-19T09:01:48;12.00;;;1.80;;
72590;SDS011;60625;51.212;5.952;2023-09-19T09:06:52;10.50;;;2.10;;
72590;SDS011;60625;51.212;5.952;2023-09-19T09:11:55;12.60;;;1.80;;
72590;SDS011;60625;51.212;5.952;2023-09-19T09:16:57;10.60;;;1.80;;
72590;SDS011;60625;51.212;5.952;2023-09-19T09:22:10;10.70;;;1.70;;
72590;SDS011;60625;51.212;5.952;2023-09-19T09:27:12;8.70;;;1.90;;
72590;SDS011;60625;51.212;5.952;2023-09-19T09:37:19;9.90;;;2.20;;
72590;SDS011;60625;51.212;5.952;2023-09-19T09:42:30;11.40;;;2.00;;
72590;SDS011;60625;51.212;5.952;2023-09-19T09:48:02;8.30;;;1.90;;
72590;SDS011;60625;51.212;5.952;2023-09-19T09:53:21;11.00;;;2.00;;
72590;SDS011;60625;51.212;5.952;2023-09-19T09:58:26;8.50;;;1.80;;
72590;SDS011;60625;51.212;5.952;2023-09-19T10:08:38;9.20;;;1.60;;
72590;SDS011;60625;51.212;5.952;2023-09-19T10:13:39;6.70;;;1.70;;
72590;SDS011;60625;51.212;5.952;2023-09-19T10:18:43;8.70;;;1.50;;
72590;SDS011;60625;51.212;5.952;2023-09-19T10:23:45;7.20;;;1.60;;
72590;SDS011;60625;51.212;5.952;2023-09-19T10:28:47;11.10;;;2.20;;
72590;SDS011;60625;51.212;5.952;2023-09-19T10:33:51;14.60;;;2.30;;
72590;SDS011;60625;51.212;5.952;2023-09-19T10:38:54;8.10;;;1.50;;
72590;SDS011;60625;51.212;5.952;2023-09-19T10:43:58;7.60;;;1.90;;
72590;SDS011;60625;51.212;5.952;2023-09-19T10:49:00;10.90;;;2.00;;
72590;SDS011;60625;51.212;5.952;2023-09-19T10:54:08;7.20;;;1.60;;
72590;SDS011;60625;51.212;5.952;2023-09-19T10:59:18;13.30;;;2.00;;
72590;SDS011;60625;51.212;5.952;2023-09-19T11:04:31;8.40;;;1.60;;
72590;SDS011;60625;51.212;5.952;2023-09-19T11:09:53;7.20;;;1.70;;
72590;SDS011;60625;51.212;5.952;2023-09-19T11:14:54;10.80;;;2.00;;
72590;SDS011;60625;51.212;5.952;2023-09-19T11:30:30;9.20;;;1.60;;
72590;SDS011;60625;51.212;5.952;2023-09-19T11:36:08;14.20;;;2.10;;
72590;SDS011;60625;51.212;5.952;2023-09-19T11:51:52;9.60;;;1.60;;
72590;SDS011;60625;51.212;5.952;2023-09-19T11:56:55;9.30;;;1.80;;
72590;SDS011;60625;51.212;5.952;2023-09-19T12:02:01;6.80;;;1.30;;
72590;SDS011;60625;51.212;5.952;2023-09-19T12:07:06;6.50;;;1.70;;
72590;SDS011;60625;51.212;5.952;2023-09-19T12:12:11;8.20;;;1.30;;
72590;SDS011;60625;51.212;5.952;2023-09-19T12:17:17;5.40;;;1.30;;
72590;SDS011;60625;51.212;5.952;2023-09-19T12:22:18;4.80;;;1.00;;
72590;SDS011;60625;51.212;5.952;2023-09-19T12:27:21;7.10;;;1.00;;
72590;SDS011;60625;51.212;5.952;2023-09-19T12:32:35;5.00;;;1.20;;
72590;SDS011;60625;51.212;5.952;2023-09-19T12:37:37;7.20;;;1.00;;
72590;SDS011;60625;51.212;5.952;2023-09-19T12:42:37;6.60;;;0.80;;
72590;SDS011;60625;51.212;5.952;2023-09-19T12:47:39;14.50;;;1.20;;
72590;SDS011;60625;51.212;5.952;2023-09-19T12:52:49;4.50;;;1.00;;
72590;SDS011;60625;51.212;5.952;2023-09-19T13:03:32;6.70;;;0.90;;
72590;SDS011;60625;51.212;5.952;2023-09-19T13:08:38;5.50;;;0.60;;
72590;SDS011;60625;51.212;5.952;2023-09-19T13:13:44;7.00;;;1.30;;
72590;SDS011;60625;51.212;5.952;2023-09-19T13:18:48;4.50;;;1.10;;
72590;SDS011;60625;51.212;5.952;2023-09-19T13:23:53;3.60;;;0.80;;
72590;SDS011;60625;51.212;5.952;2023-09-19T13:29:01;4.10;;;0.70;;
72590;SDS011;60625;51.212;5.952;2023-09-19T13:34:01;4.50;;;0.80;;
72590;SDS011;60625;51.212;5.952;2023-09-19T13:39:02;5.30;;;0.70;;
72590;SDS011;60625;51.212;5.952;2023-09-19T13:44:03;5.60;;;0.90;;
72590;SDS011;60625;51.212;5.952;2023-09-19T13:49:04;3.70;;;0.80;;
72590;SDS011;60625;51.212;5.952;2023-09-19T13:54:05;5.50;;;0.90;;
72590;SDS011;60625;51.212;5.952;2023-09-19T13:59:06;3.80;;;0.80;;
72590;SDS011;60625;51.212;5.952;2023-09-19T14:04:06;2.50;;;0.50;;
72590;SDS011;60625;51.212;5.952;2023-09-19T14:09:07;5.30;;;0.80;;
72590;SDS011;60625;51.212;5.952;2023-09-19T14:14:08;3.60;;;0.80;;
72590;SDS011;60625;51.212;5.952;2023-09-19T14:19:09;4.20;;;0.70;;
72590;SDS011;60625;51.212;5.952;2023-09-19T14:24:10;4.90;;;0.80;;
72590;SDS011;60625;51.212;5.952;2023-09-19T14:29:12;3.90;;;0.90;;
72590;SDS011;60625;51.212;5.952;2023-09-19T14:34:13;7.50;;;1.00;;
72590;SDS011;60625;51.212;5.952;2023-09-19T14:39:15;3.70;;;0.50;;
72590;SDS011;60625;51.212;5.952;2023-09-19T14:44:15;3.60;;;0.70;;
72590;SDS011;60625;51.212;5.952;2023-09-19T14:49:16;4.60;;;1.10;;
72590;SDS011;60625;51.212;5.952;2023-09-19T14:54:17;4.70;;;0.70;;
72590;SDS011;60625;51.212;5.952;2023-09-19T14:59:17;8.90;;;1.00;;
72590;SDS011;60625;51.212;5.952;2023-09-19T15:04:18;4.50;;;0.90;;
72590;SDS011;60625;51.212;5.952;2023-09-19T15:09:18;3.40;;;0.60;;
72590;SDS011;60625;51.212;5.952;2023-09-19T15:14:19;3.70;;;0.60;;
72590;SDS011;60625;51.212;5.952;2023-09-19T15:19:21;5.50;;;0.70;;
72590;SDS011;60625;51.212;5.952;2023-09-19T15:24:22;5.00;;;1.00;;
72590;SDS011;60625;51.212;5.952;2023-09-19T15:29:23;5.60;;;1.00;;
72590;SDS011;60625;51.212;5.952;2023-09-19T15:34:25;4.00;;;0.50;;
72590;SDS011;60625;51.212;5.952;2023-09-19T15:39:25;4.00;;;0.60;;
72590;SDS011;60625;51.212;5.952;2023-09-19T15:44:26;4.20;;;0.60;;
72590;SDS011;60625;51.212;5.952;2023-09-19T15:49:29;4.80;;;1.00;;
72590;SDS011;60625;51.212;5.952;2023-09-19T15:54:29;3.90;;;0.90;;
72590;SDS011;60625;51.212;5.952;2023-09-19T15:59:32;5.30;;;0.80;;
72590;SDS011;60625;51.212;5.952;2023-09-19T16:04:33;3.80;;;0.80;;
72590;SDS011;60625;51.212;5.952;2023-09-19T16:09:34;5.40;;;0.90;;
72590;SDS011;60625;51.212;5.952;2023-09-19T16:14:36;7.40;;;1.30;;
72590;SDS011;60625;51.212;5.952;2023-09-19T16:19:37;5.40;;;1.10;;
72590;SDS011;60625;51.212;5.952;2023-09-19T16:24:38;4.00;;;1.00;;
72590;SDS011;60625;51.212;5.952;2023-09-19T16:29:38;7.00;;;1.50;;
72590;SDS011;60625;51.212;5.952;2023-09-19T16:34:39;4.60;;;1.10;;
72590;SDS011;60625;51.212;5.952;2023-09-19T16:39:39;5.90;;;0.90;;
72590;SDS011;60625;51.212;5.952;2023-09-19T16:44:41;3.90;;;1.30;;
72590;SDS011;60625;51.212;5.952;2023-09-19T16:49:42;5.60;;;1.00;;
72590;SDS011;60625;51.212;5.952;2023-09-19T16:54:42;5.70;;;0.90;;
72590;SDS011;60625;51.212;5.952;2023-09-19T16:59:43;5.60;;;1.10;;
72590;SDS011;60625;51.212;5.952;2023-09-19T17:04:43;4.40;;;1.00;;
72590;SDS011;60625;51.212;5.952;2023-09-19T17:09:43;5.80;;;1.40;;
72590;SDS011;60625;51.212;5.952;2023-09-19T17:14:44;3.00;;;1.10;;
72590;SDS011;60625;51.212;5.952;2023-09-19T17:19:44;4.10;;;0.80;;
72590;SDS011;60625;51.212;5.952;2023-09-19T17:24:45;3.40;;;0.70;;
72590;SDS011;60625;51.212;5.952;2023-09-19T17:29:46;7.60;;;1.00;;
72590;SDS011;60625;51.212;5.952;2023-09-19T17:34:47;3.70;;;0.90;;
72590;SDS011;60625;51.212;5.952;2023-09-19T17:39:49;3.90;;;0.80;;
72590;SDS011;60625;51.212;5.952;2023-09-19T17:44:50;6.80;;;0.90;;
72590;SDS011;60625;51.212;5.952;2023-09-19T17:49:51;5.50;;;1.30;;
72590;SDS011;60625;51.212;5.952;2023-09-19T17:54:51;5.90;;;1.00;;
72590;SDS011;60625;51.212;5.952;2023-09-19T17:59:52;5.80;;;1.30;;
72590;SDS011;60625;51.212;5.952;2023-09-19T18:04:52;6.40;;;1.00;;
72590;SDS011;60625;51.212;5.952;2023-09-19T18:09:53;6.30;;;1.30;;
72590;SDS011;60625;51.212;5.952;2023-09-19T18:14:53;5.60;;;1.40;;
72590;SDS011;60625;51.212;5.952;2023-09-19T18:19:54;4.50;;;0.90;;
72590;SDS011;60625;51.212;5.952;2023-09-19T18:24:55;5.40;;;1.30;;
72590;SDS011;60625;51.212;5.952;2023-09-19T18:29:55;6.20;;;1.30;;
72590;SDS011;60625;51.212;5.952;2023-09-19T18:34:56;10.40;;;1.30;;
72590;SDS011;60625;51.212;5.952;2023-09-19T18:39:57;6.80;;;1.00;;
72590;SDS011;60625;51.212;5.952;2023-09-19T18:44:57;4.00;;;1.00;;
72590;SDS011;60625;51.212;5.952;2023-09-19T18:49:58;4.40;;;1.10;;
72590;SDS011;60625;51.212;5.952;2023-09-19T18:54:58;5.00;;;1.00;;
72590;SDS011;60625;51.212;5.952;2023-09-19T19:00:00;6.20;;;1.10;;
72590;SDS011;60625;51.212;5.952;2023-09-19T19:05:01;4.40;;;1.20;;
72590;SDS011;60625;51.212;5.952;2023-09-19T19:10:02;4.20;;;0.80;;
72590;SDS011;60625;51.212;5.952;2023-09-19T19:15:05;7.50;;;1.10;;
72590;SDS011;60625;51.212;5.952;2023-09-19T19:20:07;4.90;;;1.30;;
72590;SDS011;60625;51.212;5.952;2023-09-19T19:25:10;6.10;;;1.20;;
72590;SDS011;60625;51.212;5.952;2023-09-19T19:30:11;6.70;;;0.90;;
72590;SDS011;60625;51.212;5.952;2023-09-19T19:35:12;5.60;;;1.30;;
72590;SDS011;60625;51.212;5.952;2023-09-19T19:40:13;4.70;;;1.20;;
72590;SDS011;60625;51.212;5.952;2023-09-19T19:45:13;6.20;;;1.10;;
72590;SDS011;60625;51.212;5.952;2023-09-19T19:50:14;6.60;;;1.00;;
72590;SDS011;60625;51.212;5.952;2023-09-19T19:55:16;6.40;;;1.20;;
72590;SDS011;60625;51.212;5.952;2023-09-19T20:00:17;4.40;;;1.10;;
72590;SDS011;60625;51.212;5.952;2023-09-19T20:05:20;4.70;;;1.20;;
72590;SDS011;60625;51.212;5.952;2023-09-19T20:10:21;5.40;;;1.30;;
72590;SDS011;60625;51.212;5.952;2023-09-19T20:15:22;8.20;;;1.10;;
72590;SDS011;60625;51.212;5.952;2023-09-19T20:20:25;5.80;;;1.00;;
72590;SDS011;60625;51.212;5.952;2023-09-19T20:25:27;8.00;;;1.30;;
72590;SDS011;60625;51.212;5.952;2023-09-19T20:30:28;5.80;;;1.30;;
72590;SDS011;60625;51.212;5.952;2023-09-19T20:35:29;7.30;;;1.70;;
72590;SDS011;60625;51.212;5.952;2023-09-19T20:40:29;5.50;;;0.90;;
72590;SDS011;60625;51.212;5.952;2023-09-19T20:45:31;5.60;;;1.40;;
72590;SDS011;60625;51.212;5.952;2023-09-19T20:50:33;5.60;;;1.30;;
72590;SDS011;60625;51.212;5.952;2023-09-19T20:55:34;5.30;;;1.40;;
72590;SDS011;60625;51.212;5.952;2023-09-19T21:00:40;5.50;;;1.30;;
72590;SDS011;60625;51.212;5.952;2023-09-19T21:05:41;6.20;;;1.40;;
72590;SDS011;60625;51.212;5.952;2023-09-19T21:10:42;5.30;;;1.30;;
72590;SDS011;60625;51.212;5.952;2023-09-19T21:15:42;6.80;;;1.50;;
72590;SDS011;60625;51.212;5.952;2023-09-19T21:20:43;6.60;;;1.70;;
72590;SDS011;60625;51.212;5.952;2023-09-19T21:25:53;5.80;;;1.40;;
72590;SDS011;60625;51.212;5.952;2023-09-19T21:31:02;6.20;;;1.30;;
72590;SDS011;60625;51.212;5.952;2023-09-19T21:36:05;5.70;;;1.10;;
72590;SDS011;60625;51.212;5.952;2023-09-19T21:41:11;5.10;;;1.30;;
72590;SDS011;60625;51.212;5.952;2023-09-19T21:46:17;6.90;;;2.00;;
72590;SDS011;60625;51.212;5.952;2023-09-19T21:51:18;8.50;;;1.40;;
72590;SDS011;60625;51.212;5.952;2023-09-19T21:56:19;6.50;;;1.30;;
72590;SDS011;60625;51.212;5.952;2023-09-19T22:01:20;9.70;;;1.40;;
72590;SDS011;60625;51.212;5.952;2023-09-19T22:06:28;7.10;;;1.80;;
72590;SDS011;60625;51.212;5.952;2023-09-19T22:11:30;6.50;;;1.40;;
72590;SDS011;60625;51.212;5.952;2023-09-19T22:16:31;6.90;;;1.30;;
72590;SDS011;60625;51.212;5.952;2023-09-19T22:21:32;8.70;;;1.60;;
72590;SDS011;60625;51.212;5.952;2023-09-19T22:26:37;7.20;;;1.20;;
72590;SDS011;60625;51.212;5.952;2023-09-19T22:31:39;7.50;;;1.70;;
72590;SDS011;60625;51.212;5.952;2023-09-19T22:36:42;6.20;;;1.60;;
72590;SDS011;60625;51.212;5.952;2023-09-19T22:41:44;5.50;;;1.40;;
72590;SDS011;60625;51.212;5.952;2023-09-19T22:46:45;9.50;;;1.50;;
72590;SDS011;60625;51.212;5.952;2023-09-19T22:51:48;8.60;;;1.60;;
72590;SDS011;60625;51.212;5.952;2023-09-19T22:56:54;4.80;;;1.40;;
72590;SDS011;60625;51.212;5.952;2023-09-19T23:01:56;8.80;;;1.70;;
72590;SDS011;60625;51.212;5.952;2023-09-19T23:06:57;6.00;;;1.60;;
72590;SDS011;60625;51.212;5.952;2023-09-19T23:12:05;5.90;;;1.30;;
72590;SDS011;60625;51.212;5.952;2023-09-19T23:17:07;8.00;;;1.50;;
72590;SDS011;60625;51.212;5.952;2023-09-19T23:22:15;6.80;;;1.40;;
72590;SDS011;60625;51.212;5.952;2023-09-19T23:27:18;7.40;;;1.50;;
72590;SDS011;60625;51.212;5.952;2023-09-19T23:32:34;7.40;;;1.50;;
72590;SDS011;60625;51.212;5.952;2023-09-19T23:37:35;11.40;;;1.60;;
72590;SDS011;60625;51.212;5.952;2023-09-19T23:42:35;8.10;;;1.10;;
72590;SDS011;60625;51.212;5.952;2023-09-19T23:47:36;7.20;;;1.70;;
72590;SDS011;60625;51.212;5.952;2023-09-19T23:52:36;5.60;;;1.40;;
72590;SDS011;60625;51.212;5.952;2023-09-19T23:57:37;7.40;;;1.70;;
